sensor_id;sensor_type;location;lat;lon;timestamp;temperature;humidity
58469;DHT22;44257;44.804;10.220;2022-08-07T00:00:39;26.50;89.10
58469;DHT22;44257;44.804;10.220;2022-08-07T00:03:05;26.30;90.80
58469;DHT22;44257;44.804;10.220;2022-08-07T00:05:31;26.20;92.10
58469;DHT22;44257;44.804;10.220;2022-08-07T00:07:58;26.20;92.80
58469;DHT22;44257;44.804;10.220;2022-08-07T00:10:24;26.10;92.40
58469;DHT22;44257;44.804;10.220;2022-08-07T00:12:50;26.10;93.10
58469;DHT22;44257;44.804;10.220;2022-08-07T00:15:17;26.00;93.80
58469;DHT22;44257;44.804;10.220;2022-08-07T00:17:43;25.90;93.80
58469;DHT22;44257;44.804;10.220;2022-08-07T00:20:09;25.70;94.40
58469;DHT22;44257;44.804;10.220;2022-08-07T00:22:35;25.50;95.20
58469;DHT22;44257;44.804;10.220;2022-08-07T00:25:06;25.40;95.60
58469;DHT22;44257;44.804;10.220;2022-08-07T00:27:32;25.20;96.10
58469;DHT22;44257;44.804;10.220;2022-08-07T00:29:59;25.10;96.90
58469;DHT22;44257;44.804;10.220;2022-08-07T00:32:24;24.90;96.60
58469;DHT22;44257;44.804;10.220;2022-08-07T00:34:50;24.60;97.60
58469;DHT22;44257;44.804;10.220;2022-08-07T00:37:16;24.40;98.10
58469;DHT22;44257;44.804;10.220;2022-08-07T00:39:42;24.30;98.80
58469;DHT22;44257;44.804;10.220;2022-08-07T00:42:08;24.20;99.40
58469;DHT22;44257;44.804;10.220;2022-08-07T00:44:35;24.00;99.90
58469;DHT22;44257;44.804;10.220;2022-08-07T00:47:03;23.90;99.90
58469;DHT22;44257;44.804;10.220;2022-08-07T00:49:29;23.90;99.90
58469;DHT22;44257;44.804;10.220;2022-08-07T00:51:55;23.80;99.90
58469;DHT22;44257;44.804;10.220;2022-08-07T00:54:21;23.80;99.90
58469;DHT22;44257;44.804;10.220;2022-08-07T00:56:48;23.80;99.90
58469;DHT22;44257;44.804;10.220;2022-08-07T00:59:15;23.80;99.90
58469;DHT22;44257;44.804;10.220;2022-08-07T01:01:41;23.90;99.90
58469;DHT22;44257;44.804;10.220;2022-08-07T01:04:07;24.00;99.90
58469;DHT22;44257;44.804;10.220;2022-08-07T01:06:34;24.00;99.90
58469;DHT22;44257;44.804;10.220;2022-08-07T01:09:01;24.00;99.90
58469;DHT22;44257;44.804;10.220;2022-08-07T01:11:28;24.10;99.90
58469;DHT22;44257;44.804;10.220;2022-08-07T01:13:54;24.10;99.90
58469;DHT22;44257;44.804;10.220;2022-08-07T01:16:21;24.20;99.90
58469;DHT22;44257;44.804;10.220;2022-08-07T01:18:47;24.30;99.80
58469;DHT22;44257;44.804;10.220;2022-08-07T01:21:17;24.30;99.80
58469;DHT22;44257;44.804;10.220;2022-08-07T01:23:52;24.30;99.80
58469;DHT22;44257;44.804;10.220;2022-08-07T01:26:20;24.30;99.80
58469;DHT22;44257;44.804;10.220;2022-08-07T01:28:49;24.30;99.70
58469;DHT22;44257;44.804;10.220;2022-08-07T01:31:21;24.30;99.30
58469;DHT22;44257;44.804;10.220;2022-08-07T01:33:58;24.30;99.30
58469;DHT22;44257;44.804;10.220;2022-08-07T01:36:29;24.40;99.10
58469;DHT22;44257;44.804;10.220;2022-08-07T01:38:57;24.40;99.30
58469;DHT22;44257;44.804;10.220;2022-08-07T01:41:24;24.30;99.50
58469;DHT22;44257;44.804;10.220;2022-08-07T01:43:52;24.30;99.60
58469;DHT22;44257;44.804;10.220;2022-08-07T01:46:19;24.30;99.70
58469;DHT22;44257;44.804;10.220;2022-08-07T01:48:47;24.30;99.90
58469;DHT22;44257;44.804;10.220;2022-08-07T01:51:23;24.30;99.90
58469;DHT22;44257;44.804;10.220;2022-08-07T01:53:51;24.40;99.90
58469;DHT22;44257;44.804;10.220;2022-08-07T01:56:28;24.40;99.90
58469;DHT22;44257;44.804;10.220;2022-08-07T01:59:07;24.40;99.90
58469;DHT22;44257;44.804;10.220;2022-08-07T02:01:39;24.40;99.90
58469;DHT22;44257;44.804;10.220;2022-08-07T02:04:29;24.40;99.90
58469;DHT22;44257;44.804;10.220;2022-08-07T02:07:02;24.40;99.90
58469;DHT22;44257;44.804;10.220;2022-08-07T02:09:30;24.40;99.90
58469;DHT22;44257;44.804;10.220;2022-08-07T02:11:59;24.30;99.90
58469;DHT22;44257;44.804;10.220;2022-08-07T02:14:51;24.40;99.90
58469;DHT22;44257;44.804;10.220;2022-08-07T02:17:25;24.30;99.90
58469;DHT22;44257;44.804;10.220;2022-08-07T02:19:54;24.30;99.90
58469;DHT22;44257;44.804;10.220;2022-08-07T02:22:21;24.20;99.90
58469;DHT22;44257;44.804;10.220;2022-08-07T02:24:51;24.10;99.90
58469;DHT22;44257;44.804;10.220;2022-08-07T02:27:21;24.10;99.90
58469;DHT22;44257;44.804;10.220;2022-08-07T02:29:48;24.00;99.90
58469;DHT22;44257;44.804;10.220;2022-08-07T02:32:16;23.90;99.90
58469;DHT22;44257;44.804;10.220;2022-08-07T02:34:44;23.90;99.90
58469;DHT22;44257;44.804;10.220;2022-08-07T02:37:12;23.80;99.90
58469;DHT22;44257;44.804;10.220;2022-08-07T02:39:42;23.70;99.90
58469;DHT22;44257;44.804;10.220;2022-08-07T02:42:12;23.60;99.90
58469;DHT22;44257;44.804;10.220;2022-08-07T02:44:43;23.60;99.90
58469;DHT22;44257;44.804;10.220;2022-08-07T02:47:10;23.60;99.90
58469;DHT22;44257;44.804;10.220;2022-08-07T02:49:37;23.60;99.90
58469;DHT22;44257;44.804;10.220;2022-08-07T02:52:08;23.60;99.90
58469;DHT22;44257;44.804;10.220;2022-08-07T02:54:39;23.60;99.90
58469;DHT22;44257;44.804;10.220;2022-08-07T02:57:07;23.60;99.90
58469;DHT22;44257;44.804;10.220;2022-08-07T02:59:35;23.60;99.90
58469;DHT22;44257;44.804;10.220;2022-08-07T03:02:03;23.50;99.90
58469;DHT22;44257;44.804;10.220;2022-08-07T03:04:30;23.50;99.90
58469;DHT22;44257;44.804;10.220;2022-08-07T03:06:59;23.40;99.90
58469;DHT22;44257;44.804;10.220;2022-08-07T03:09:26;23.50;99.90
58469;DHT22;44257;44.804;10.220;2022-08-07T03:11:52;23.40;99.90
58469;DHT22;44257;44.804;10.220;2022-08-07T03:14:19;23.30;99.90
58469;DHT22;44257;44.804;10.220;2022-08-07T03:16:46;23.30;99.90
58469;DHT22;44257;44.804;10.220;2022-08-07T03:19:13;23.20;99.90
58469;DHT22;44257;44.804;10.220;2022-08-07T03:21:39;23.20;99.90
58469;DHT22;44257;44.804;10.220;2022-08-07T03:24:05;23.10;99.90
58469;DHT22;44257;44.804;10.220;2022-08-07T03:26:33;23.10;99.90
58469;DHT22;44257;44.804;10.220;2022-08-07T03:29:05;23.10;99.90
58469;DHT22;44257;44.804;10.220;2022-08-07T03:31:34;23.10;99.90
58469;DHT22;44257;44.804;10.220;2022-08-07T03:34:01;23.00;99.90
58469;DHT22;44257;44.804;10.220;2022-08-07T03:36:33;23.10;99.90
58469;DHT22;44257;44.804;10.220;2022-08-07T03:39:04;23.10;99.90
58469;DHT22;44257;44.804;10.220;2022-08-07T03:41:31;23.10;99.90
58469;DHT22;44257;44.804;10.220;2022-08-07T03:43:57;23.10;99.90
58469;DHT22;44257;44.804;10.220;2022-08-07T03:46:29;23.20;99.90
58469;DHT22;44257;44.804;10.220;2022-08-07T03:48:56;23.20;99.90
58469;DHT22;44257;44.804;10.220;2022-08-07T03:51:23;23.20;99.90
58469;DHT22;44257;44.804;10.220;2022-08-07T03:53:51;23.20;99.90
58469;DHT22;44257;44.804;10.220;2022-08-07T03:56:19;23.10;99.90
58469;DHT22;44257;44.804;10.220;2022-08-07T03:58:47;23.10;99.90
58469;DHT22;44257;44.804;10.220;2022-08-07T04:01:14;23.10;99.90
58469;DHT22;44257;44.804;10.220;2022-08-07T04:03:44;23.00;99.90
58469;DHT22;44257;44.804;10.220;2022-08-07T04:06:11;22.90;99.90
58469;DHT22;44257;44.804;10.220;2022-08-07T04:08:41;22.90;99.90
58469;DHT22;44257;44.804;10.220;2022-08-07T04:11:09;22.90;99.90
58469;DHT22;44257;44.804;10.220;2022-08-07T04:13:38;22.80;99.90
58469;DHT22;44257;44.804;10.220;2022-08-07T04:16:05;22.90;99.90
58469;DHT22;44257;44.804;10.220;2022-08-07T04:18:32;23.00;99.90
58469;DHT22;44257;44.804;10.220;2022-08-07T04:20:58;23.10;99.90
58469;DHT22;44257;44.804;10.220;2022-08-07T04:23:24;23.20;99.90
58469;DHT22;44257;44.804;10.220;2022-08-07T04:25:52;23.30;99.90
58469;DHT22;44257;44.804;10.220;2022-08-07T04:28:19;23.30;99.90
58469;DHT22;44257;44.804;10.220;2022-08-07T04:30:48;23.30;99.90
58469;DHT22;44257;44.804;10.220;2022-08-07T04:33:19;23.30;99.90
58469;DHT22;44257;44.804;10.220;2022-08-07T04:35:48;23.30;99.90
58469;DHT22;44257;44.804;10.220;2022-08-07T04:38:16;23.30;99.90
58469;DHT22;44257;44.804;10.220;2022-08-07T04:40:45;23.10;99.90
58469;DHT22;44257;44.804;10.220;2022-08-07T04:43:15;23.00;99.90
58469;DHT22;44257;44.804;10.220;2022-08-07T04:46:08;22.90;99.90
58469;DHT22;44257;44.804;10.220;2022-08-07T04:51:45;22.70;99.90
58469;DHT22;44257;44.804;10.220;2022-08-07T05:02:10;23.00;99.90
58469;DHT22;44257;44.804;10.220;2022-08-07T05:04:59;23.00;99.90
58469;DHT22;44257;44.804;10.220;2022-08-07T05:07:41;22.90;99.90
58469;DHT22;44257;44.804;10.220;2022-08-07T05:10:15;22.90;99.90
58469;DHT22;44257;44.804;10.220;2022-08-07T05:15:20;22.90;99.90
58469;DHT22;44257;44.804;10.220;2022-08-07T05:17:58;22.90;99.90
58469;DHT22;44257;44.804;10.220;2022-08-07T05:20:38;22.80;99.90
58469;DHT22;44257;44.804;10.220;2022-08-07T05:23:10;22.80;99.90
58469;DHT22;44257;44.804;10.220;2022-08-07T05:25:40;22.70;99.90
58469;DHT22;44257;44.804;10.220;2022-08-07T05:28:08;22.60;99.90
58469;DHT22;44257;44.804;10.220;2022-08-07T05:30:35;22.60;99.90
58469;DHT22;44257;44.804;10.220;2022-08-07T05:33:03;22.60;99.90
58469;DHT22;44257;44.804;10.220;2022-08-07T05:35:34;22.50;99.90
58469;DHT22;44257;44.804;10.220;2022-08-07T05:38:04;22.50;99.90
58469;DHT22;44257;44.804;10.220;2022-08-07T05:40:33;22.50;99.90
58469;DHT22;44257;44.804;10.220;2022-08-07T05:43:01;22.50;99.90
58469;DHT22;44257;44.804;10.220;2022-08-07T05:45:29;22.50;99.90
58469;DHT22;44257;44.804;10.220;2022-08-07T05:47:59;22.40;99.90
58469;DHT22;44257;44.804;10.220;2022-08-07T05:50:27;22.40;99.90
58469;DHT22;44257;44.804;10.220;2022-08-07T05:52:55;22.40;99.90
58469;DHT22;44257;44.804;10.220;2022-08-07T05:55:21;22.50;99.90
58469;DHT22;44257;44.804;10.220;2022-08-07T05:57:49;22.50;99.90
58469;DHT22;44257;44.804;10.220;2022-08-07T06:00:16;22.60;99.90
58469;DHT22;44257;44.804;10.220;2022-08-07T06:02:51;22.60;99.90
58469;DHT22;44257;44.804;10.220;2022-08-07T06:05:20;22.60;99.90
58469;DHT22;44257;44.804;10.220;2022-08-07T06:07:49;22.60;99.90
58469;DHT22;44257;44.804;10.220;2022-08-07T06:10:15;22.70;99.90
58469;DHT22;44257;44.804;10.220;2022-08-07T06:12:42;22.70;99.90
58469;DHT22;44257;44.804;10.220;2022-08-07T06:15:11;22.70;99.90
58469;DHT22;44257;44.804;10.220;2022-08-07T06:17:39;22.70;99.90
58469;DHT22;44257;44.804;10.220;2022-08-07T06:20:08;22.80;99.90
58469;DHT22;44257;44.804;10.220;2022-08-07T06:22:37;22.90;99.90
58469;DHT22;44257;44.804;10.220;2022-08-07T06:25:16;22.90;99.90
58469;DHT22;44257;44.804;10.220;2022-08-07T06:27:42;23.00;99.90
58469;DHT22;44257;44.804;10.220;2022-08-07T06:30:08;23.10;99.90
58469;DHT22;44257;44.804;10.220;2022-08-07T06:32:34;23.20;99.90
58469;DHT22;44257;44.804;10.220;2022-08-07T06:35:00;23.20;99.90
58469;DHT22;44257;44.804;10.220;2022-08-07T06:37:27;23.30;99.90
58469;DHT22;44257;44.804;10.220;2022-08-07T06:39:53;23.30;99.90
58469;DHT22;44257;44.804;10.220;2022-08-07T06:42:32;23.30;99.90
58469;DHT22;44257;44.804;10.220;2022-08-07T06:45:13;23.20;99.90
58469;DHT22;44257;44.804;10.220;2022-08-07T06:47:41;23.20;99.90
58469;DHT22;44257;44.804;10.220;2022-08-07T06:50:10;23.20;99.90
58469;DHT22;44257;44.804;10.220;2022-08-07T06:52:40;23.20;99.90
58469;DHT22;44257;44.804;10.220;2022-08-07T06:55:25;23.20;99.90
58469;DHT22;44257;44.804;10.220;2022-08-07T06:57:52;23.30;99.90
58469;DHT22;44257;44.804;10.220;2022-08-07T07:00:23;23.30;99.90
58469;DHT22;44257;44.804;10.220;2022-08-07T07:02:49;23.40;99.90
58469;DHT22;44257;44.804;10.220;2022-08-07T07:05:19;23.50;99.90
58469;DHT22;44257;44.804;10.220;2022-08-07T07:07:47;23.50;99.90
58469;DHT22;44257;44.804;10.220;2022-08-07T07:10:13;23.60;99.90
58469;DHT22;44257;44.804;10.220;2022-08-07T07:15:20;23.50;99.90
58469;DHT22;44257;44.804;10.220;2022-08-07T07:18:16;23.50;99.90
58469;DHT22;44257;44.804;10.220;2022-08-07T07:20:48;23.50;99.90
58469;DHT22;44257;44.804;10.220;2022-08-07T07:23:16;23.50;99.90
58469;DHT22;44257;44.804;10.220;2022-08-07T07:25:44;23.60;99.90
58469;DHT22;44257;44.804;10.220;2022-08-07T07:28:23;23.70;99.90
58469;DHT22;44257;44.804;10.220;2022-08-07T07:30:56;23.90;99.90
58469;DHT22;44257;44.804;10.220;2022-08-07T07:33:25;24.10;99.90
58469;DHT22;44257;44.804;10.220;2022-08-07T07:35:53;24.30;99.90
58469;DHT22;44257;44.804;10.220;2022-08-07T07:38:22;24.40;99.90
58469;DHT22;44257;44.804;10.220;2022-08-07T07:40:51;24.50;99.90
58469;DHT22;44257;44.804;10.220;2022-08-07T07:43:20;24.70;99.90
58469;DHT22;44257;44.804;10.220;2022-08-07T07:45:47;24.70;99.90
58469;DHT22;44257;44.804;10.220;2022-08-07T07:48:16;24.70;99.90
58469;DHT22;44257;44.804;10.220;2022-08-07T07:50:46;24.70;99.90
58469;DHT22;44257;44.804;10.220;2022-08-07T07:53:15;24.80;99.90
58469;DHT22;44257;44.804;10.220;2022-08-07T07:55:42;24.70;99.90
58469;DHT22;44257;44.804;10.220;2022-08-07T07:58:08;24.70;99.90
58469;DHT22;44257;44.804;10.220;2022-08-07T08:00:35;24.60;99.90
58469;DHT22;44257;44.804;10.220;2022-08-07T08:03:05;24.60;99.90
58469;DHT22;44257;44.804;10.220;2022-08-07T08:05:35;24.70;99.90
58469;DHT22;44257;44.804;10.220;2022-08-07T08:08:03;24.70;99.90
58469;DHT22;44257;44.804;10.220;2022-08-07T08:10:30;24.70;99.90
58469;DHT22;44257;44.804;10.220;2022-08-07T08:12:59;24.70;99.90
58469;DHT22;44257;44.804;10.220;2022-08-07T08:15:34;24.70;99.90
58469;DHT22;44257;44.804;10.220;2022-08-07T08:18:01;24.70;99.90
58469;DHT22;44257;44.804;10.220;2022-08-07T08:20:30;24.60;99.90
58469;DHT22;44257;44.804;10.220;2022-08-07T08:22:58;24.50;99.90
58469;DHT22;44257;44.804;10.220;2022-08-07T08:25:43;24.40;99.90
58469;DHT22;44257;44.804;10.220;2022-08-07T08:28:30;24.20;99.90
58469;DHT22;44257;44.804;10.220;2022-08-07T08:30:59;24.10;99.90
58469;DHT22;44257;44.804;10.220;2022-08-07T08:33:30;24.10;99.90
58469;DHT22;44257;44.804;10.220;2022-08-07T08:35:57;24.00;99.90
58469;DHT22;44257;44.804;10.220;2022-08-07T08:38:31;24.10;99.90
58469;DHT22;44257;44.804;10.220;2022-08-07T08:41:18;24.10;99.90
58469;DHT22;44257;44.804;10.220;2022-08-07T08:44:01;24.10;99.90
58469;DHT22;44257;44.804;10.220;2022-08-07T08:47:13;24.30;99.90
58469;DHT22;44257;44.804;10.220;2022-08-07T08:52:25;24.80;99.90
58469;DHT22;44257;44.804;10.220;2022-08-07T08:55:05;25.00;99.90
58469;DHT22;44257;44.804;10.220;2022-08-07T08:57:43;25.00;99.90
58469;DHT22;44257;44.804;10.220;2022-08-07T09:00:11;25.10;99.90
58469;DHT22;44257;44.804;10.220;2022-08-07T09:10:26;25.50;99.90
58469;DHT22;44257;44.804;10.220;2022-08-07T09:16:17;25.50;99.90
58469;DHT22;44257;44.804;10.220;2022-08-07T09:18:56;25.50;99.90
58469;DHT22;44257;44.804;10.220;2022-08-07T09:24:41;25.40;99.90
58469;DHT22;44257;44.804;10.220;2022-08-07T09:27:21;25.30;99.90
58469;DHT22;44257;44.804;10.220;2022-08-07T09:35:07;25.40;99.90
58469;DHT22;44257;44.804;10.220;2022-08-07T09:37:43;25.50;99.90
58469;DHT22;44257;44.804;10.220;2022-08-07T09:40:28;25.60;99.90
58469;DHT22;44257;44.804;10.220;2022-08-07T09:43:24;25.70;99.90
58469;DHT22;44257;44.804;10.220;2022-08-07T09:54:44;25.80;99.90
58469;DHT22;44257;44.804;10.220;2022-08-07T10:00:03;26.10;99.90
58469;DHT22;44257;44.804;10.220;2022-08-07T10:14:41;27.40;99.90
58469;DHT22;44257;44.804;10.220;2022-08-07T10:25:54;28.00;99.90
58469;DHT22;44257;44.804;10.220;2022-08-07T10:28:25;28.10;99.90
58469;DHT22;44257;44.804;10.220;2022-08-07T10:34:24;28.40;99.90
58469;DHT22;44257;44.804;10.220;2022-08-07T10:39:55;29.30;99.90
58469;DHT22;44257;44.804;10.220;2022-08-07T10:42:39;29.60;99.90
58469;DHT22;44257;44.804;10.220;2022-08-07T10:50:41;29.80;99.90
58469;DHT22;44257;44.804;10.220;2022-08-07T11:01:30;29.90;99.90
58469;DHT22;44257;44.804;10.220;2022-08-07T11:09:33;30.00;99.20
58469;DHT22;44257;44.804;10.220;2022-08-07T11:12:10;29.90;99.60
58469;DHT22;44257;44.804;10.220;2022-08-07T11:14:46;29.80;99.90
58469;DHT22;44257;44.804;10.220;2022-08-07T11:17:20;29.70;99.60
58469;DHT22;44257;44.804;10.220;2022-08-07T11:19:58;29.70;99.90
58469;DHT22;44257;44.804;10.220;2022-08-07T11:22:34;29.70;98.10
58469;DHT22;44257;44.804;10.220;2022-08-07T11:27:50;29.30;98.20
58469;DHT22;44257;44.804;10.220;2022-08-07T11:30:23;29.20;99.60
58469;DHT22;44257;44.804;10.220;2022-08-07T11:33:08;29.30;99.70
58469;DHT22;44257;44.804;10.220;2022-08-07T11:38:52;29.30;98.60
58469;DHT22;44257;44.804;10.220;2022-08-07T11:41:27;29.30;98.70
58469;DHT22;44257;44.804;10.220;2022-08-07T11:43:57;29.60;99.60
58469;DHT22;44257;44.804;10.220;2022-08-07T11:47:10;29.70;98.80
58469;DHT22;44257;44.804;10.220;2022-08-07T11:52:34;30.30;97.50
58469;DHT22;44257;44.804;10.220;2022-08-07T11:55:28;30.50;96.10
58469;DHT22;44257;44.804;10.220;2022-08-07T12:01:55;30.50;96.90
58469;DHT22;44257;44.804;10.220;2022-08-07T12:04:42;30.70;96.30
58469;DHT22;44257;44.804;10.220;2022-08-07T12:07:29;30.80;95.30
58469;DHT22;44257;44.804;10.220;2022-08-07T12:10:08;31.00;95.60
58469;DHT22;44257;44.804;10.220;2022-08-07T12:12:52;31.20;96.00
58469;DHT22;44257;44.804;10.220;2022-08-07T12:15:25;31.20;94.30
58469;DHT22;44257;44.804;10.220;2022-08-07T12:18:11;31.30;93.80
58469;DHT22;44257;44.804;10.220;2022-08-07T12:20:57;31.40;93.20
58469;DHT22;44257;44.804;10.220;2022-08-07T12:23:43;31.50;92.60
58469;DHT22;44257;44.804;10.220;2022-08-07T12:26:28;31.30;92.70
58469;DHT22;44257;44.804;10.220;2022-08-07T12:29:04;31.00;93.00
58469;DHT22;44257;44.804;10.220;2022-08-07T12:34:10;31.10;93.00
58469;DHT22;44257;44.804;10.220;2022-08-07T12:36:36;31.00;92.20
58469;DHT22;44257;44.804;10.220;2022-08-07T12:39:05;30.90;92.40
58469;DHT22;44257;44.804;10.220;2022-08-07T12:41:33;30.70;92.60
58469;DHT22;44257;44.804;10.220;2022-08-07T12:44:04;30.60;93.60
58469;DHT22;44257;44.804;10.220;2022-08-07T12:49:48;30.80;94.30
58469;DHT22;44257;44.804;10.220;2022-08-07T12:52:26;31.00;93.70
58469;DHT22;44257;44.804;10.220;2022-08-07T12:55:00;31.20;93.80
58469;DHT22;44257;44.804;10.220;2022-08-07T12:57:30;31.30;92.90
58469;DHT22;44257;44.804;10.220;2022-08-07T12:59:58;31.30;92.70
58469;DHT22;44257;44.804;10.220;2022-08-07T13:03:04;31.20;91.90
58469;DHT22;44257;44.804;10.220;2022-08-07T13:05:36;31.10;92.30
58469;DHT22;44257;44.804;10.220;2022-08-07T13:14:18;31.20;92.20
58469;DHT22;44257;44.804;10.220;2022-08-07T13:17:12;31.20;92.90
58469;DHT22;44257;44.804;10.220;2022-08-07T13:25:03;31.40;93.10
58469;DHT22;44257;44.804;10.220;2022-08-07T13:27:49;31.50;92.30
58469;DHT22;44257;44.804;10.220;2022-08-07T13:30:17;31.50;92.30
58469;DHT22;44257;44.804;10.220;2022-08-07T13:33:46;31.50;91.80
58469;DHT22;44257;44.804;10.220;2022-08-07T13:36:20;31.50;92.90
58469;DHT22;44257;44.804;10.220;2022-08-07T13:39:03;31.70;91.80
58469;DHT22;44257;44.804;10.220;2022-08-07T13:41:44;31.80;92.10
58469;DHT22;44257;44.804;10.220;2022-08-07T13:44:18;31.90;91.20
58469;DHT22;44257;44.804;10.220;2022-08-07T13:46:46;31.90;91.30
58469;DHT22;44257;44.804;10.220;2022-08-07T13:49:16;31.80;91.40
58469;DHT22;44257;44.804;10.220;2022-08-07T13:51:45;31.70;90.70
58469;DHT22;44257;44.804;10.220;2022-08-07T13:54:12;31.50;90.70
58469;DHT22;44257;44.804;10.220;2022-08-07T13:56:40;31.40;92.40
58469;DHT22;44257;44.804;10.220;2022-08-07T13:59:51;31.50;91.80
58469;DHT22;44257;44.804;10.220;2022-08-07T14:02:04;31.60;91.80
58469;DHT22;44257;44.804;10.220;2022-08-07T14:05:01;31.80;92.20
58469;DHT22;44257;44.804;10.220;2022-08-07T14:07:39;32.00;90.20
58469;DHT22;44257;44.804;10.220;2022-08-07T14:10:06;32.00;90.20
58469;DHT22;44257;44.804;10.220;2022-08-07T14:12:56;31.90;89.30
58469;DHT22;44257;44.804;10.220;2022-08-07T14:15:30;31.90;89.00
58469;DHT22;44257;44.804;10.220;2022-08-07T14:18:13;31.80;90.10
58469;DHT22;44257;44.804;10.220;2022-08-07T14:20:43;31.80;90.10
58469;DHT22;44257;44.804;10.220;2022-08-07T14:23:26;32.00;90.60
58469;DHT22;44257;44.804;10.220;2022-08-07T14:26:00;32.00;90.00
58469;DHT22;44257;44.804;10.220;2022-08-07T14:28:30;32.10;90.10
58469;DHT22;44257;44.804;10.220;2022-08-07T14:30:57;32.30;89.90
58469;DHT22;44257;44.804;10.220;2022-08-07T14:33:24;32.50;89.70
58469;DHT22;44257;44.804;10.220;2022-08-07T14:35:54;32.80;89.40
58469;DHT22;44257;44.804;10.220;2022-08-07T14:38:24;32.90;87.60
58469;DHT22;44257;44.804;10.220;2022-08-07T14:41:05;32.80;86.00
58469;DHT22;44257;44.804;10.220;2022-08-07T14:43:40;32.80;87.40
58469;DHT22;44257;44.804;10.220;2022-08-07T14:46:09;32.90;87.50
58469;DHT22;44257;44.804;10.220;2022-08-07T14:48:37;33.00;85.10
58469;DHT22;44257;44.804;10.220;2022-08-07T14:51:10;32.90;84.20
58469;DHT22;44257;44.804;10.220;2022-08-07T14:53:40;32.80;85.00
58469;DHT22;44257;44.804;10.220;2022-08-07T14:56:09;32.70;83.50
58469;DHT22;44257;44.804;10.220;2022-08-07T14:58:42;32.50;85.30
58469;DHT22;44257;44.804;10.220;2022-08-07T15:01:08;32.50;84.50
58469;DHT22;44257;44.804;10.220;2022-08-07T15:03:37;32.50;86.20
58469;DHT22;44257;44.804;10.220;2022-08-07T15:06:04;32.60;84.30
58469;DHT22;44257;44.804;10.220;2022-08-07T15:08:49;32.70;84.50
58469;DHT22;44257;44.804;10.220;2022-08-07T15:11:20;32.90;83.50
58469;DHT22;44257;44.804;10.220;2022-08-07T15:13:50;33.00;81.80
58469;DHT22;44257;44.804;10.220;2022-08-07T15:16:17;32.90;80.00
58469;DHT22;44257;44.804;10.220;2022-08-07T15:18:49;32.80;81.70
58469;DHT22;44257;44.804;10.220;2022-08-07T15:21:28;32.70;82.60
58469;DHT22;44257;44.804;10.220;2022-08-07T15:23:58;32.60;79.60
58469;DHT22;44257;44.804;10.220;2022-08-07T15:26:37;32.50;81.20
58469;DHT22;44257;44.804;10.220;2022-08-07T15:29:06;32.30;82.70
58469;DHT22;44257;44.804;10.220;2022-08-07T15:31:35;32.30;82.70
58469;DHT22;44257;44.804;10.220;2022-08-07T15:34:01;32.30;79.70
58469;DHT22;44257;44.804;10.220;2022-08-07T15:36:29;32.20;79.20
58469;DHT22;44257;44.804;10.220;2022-08-07T15:39:03;32.00;79.70
58469;DHT22;44257;44.804;10.220;2022-08-07T15:41:31;31.80;79.10
58469;DHT22;44257;44.804;10.220;2022-08-07T15:44:09;31.60;80.10
58469;DHT22;44257;44.804;10.220;2022-08-07T15:46:37;31.50;81.30
58469;DHT22;44257;44.804;10.220;2022-08-07T15:49:06;31.50;80.60
58469;DHT22;44257;44.804;10.220;2022-08-07T15:51:35;31.30;78.30
58469;DHT22;44257;44.804;10.220;2022-08-07T15:54:05;31.20;80.90
58469;DHT22;44257;44.804;10.220;2022-08-07T15:56:34;31.20;80.00
58469;DHT22;44257;44.804;10.220;2022-08-07T15:59:08;31.00;81.50
58469;DHT22;44257;44.804;10.220;2022-08-07T16:01:38;31.00;82.00
58469;DHT22;44257;44.804;10.220;2022-08-07T16:04:07;30.90;82.30
58469;DHT22;44257;44.804;10.220;2022-08-07T16:06:55;30.90;84.60
58469;DHT22;44257;44.804;10.220;2022-08-07T16:18:16;30.50;80.80
58469;DHT22;44257;44.804;10.220;2022-08-07T16:29:02;30.60;80.30
58469;DHT22;44257;44.804;10.220;2022-08-07T16:32:33;30.70;81.50
58469;DHT22;44257;44.804;10.220;2022-08-07T16:34:48;30.90;81.50
58469;DHT22;44257;44.804;10.220;2022-08-07T16:54:45;31.00;78.30
58469;DHT22;44257;44.804;10.220;2022-08-07T17:07:57;30.10;80.70
58469;DHT22;44257;44.804;10.220;2022-08-07T17:21:25;28.80;83.70
58469;DHT22;44257;44.804;10.220;2022-08-07T17:35:10;28.10;87.90
58469;DHT22;44257;44.804;10.220;2022-08-07T17:37:53;28.00;88.00
58469;DHT22;44257;44.804;10.220;2022-08-07T17:44:01;27.80;87.80
58469;DHT22;44257;44.804;10.220;2022-08-07T17:46:28;27.70;89.00
58469;DHT22;44257;44.804;10.220;2022-08-07T17:49:20;27.70;89.00
58469;DHT22;44257;44.804;10.220;2022-08-07T17:52:11;27.50;88.60
58469;DHT22;44257;44.804;10.220;2022-08-07T17:54:47;27.40;89.20
58469;DHT22;44257;44.804;10.220;2022-08-07T18:00:12;27.20;90.40
58469;DHT22;44257;44.804;10.220;2022-08-07T18:02:52;27.10;90.90
58469;DHT22;44257;44.804;10.220;2022-08-07T18:05:34;27.00;91.60
58469;DHT22;44257;44.804;10.220;2022-08-07T18:16:04;26.50;93.00
58469;DHT22;44257;44.804;10.220;2022-08-07T18:18:42;26.40;93.40
58469;DHT22;44257;44.804;10.220;2022-08-07T18:21:32;26.40;93.80
58469;DHT22;44257;44.804;10.220;2022-08-07T18:27:11;26.30;94.20
58469;DHT22;44257;44.804;10.220;2022-08-07T18:29:56;26.30;94.70
58469;DHT22;44257;44.804;10.220;2022-08-07T18:41:02;25.70;98.40
58469;DHT22;44257;44.804;10.220;2022-08-07T18:43:47;25.60;98.80
58469;DHT22;44257;44.804;10.220;2022-08-07T18:46:21;25.40;99.90
58469;DHT22;44257;44.804;10.220;2022-08-07T18:49:01;25.30;99.90
58469;DHT22;44257;44.804;10.220;2022-08-07T18:51:42;25.20;99.90
58469;DHT22;44257;44.804;10.220;2022-08-07T18:57:03;24.90;99.90
58469;DHT22;44257;44.804;10.220;2022-08-07T19:05:00;24.60;99.90
58469;DHT22;44257;44.804;10.220;2022-08-07T19:10:08;24.40;99.90
58469;DHT22;44257;44.804;10.220;2022-08-07T19:15:31;24.30;99.90
58469;DHT22;44257;44.804;10.220;2022-08-07T19:18:21;24.40;99.90
58469;DHT22;44257;44.804;10.220;2022-08-07T19:23:44;24.40;99.90
58469;DHT22;44257;44.804;10.220;2022-08-07T19:26:12;24.30;99.90
58469;DHT22;44257;44.804;10.220;2022-08-07T19:28:45;24.30;99.90
58469;DHT22;44257;44.804;10.220;2022-08-07T19:31:36;24.20;99.90
58469;DHT22;44257;44.804;10.220;2022-08-07T19:34:06;24.00;99.90
58469;DHT22;44257;44.804;10.220;2022-08-07T19:36:40;23.90;99.90
58469;DHT22;44257;44.804;10.220;2022-08-07T19:39:13;23.90;99.90
58469;DHT22;44257;44.804;10.220;2022-08-07T19:41:45;23.90;99.90
58469;DHT22;44257;44.804;10.220;2022-08-07T19:44:13;23.90;99.90